createdAt,value
2017-11-27T00:00:19.572Z,24.36
2017-11-27T00:00:47.544Z,24.34
2017-11-27T00:01:15.515Z,24.28
2017-11-27T00:01:43.555Z,24.37
2017-11-27T00:02:26.309Z,24.44
2017-11-27T00:02:54.349Z,24.37
2017-11-27T00:03:37.229Z,24.37
2017-11-27T00:04:05.170Z,24.28
2017-11-27T00:04:33.296Z,24.41
2017-11-27T00:05:01.819Z,24.38
2017-11-27T00:05:30.042Z,24.38
2017-11-27T00:05:58.208Z,24.41
2017-11-27T00:06:26.270Z,24.41
2017-11-27T00:06:54.390Z,24.4
2017-11-27T00:07:22.613Z,24.37
2017-11-27T00:07:50.775Z,24.36
2017-11-27T00:08:18.931Z,24.43
2017-11-27T00:09:01.458Z,24.43
2017-11-27T00:09:29.534Z,24.46
2017-11-27T00:09:58.084Z,24.43
2017-11-27T00:10:26.145Z,24.43
2017-11-27T00:10:54.195Z,24.43
2017-11-27T00:11:22.144Z,24.44
2017-11-27T00:11:50.126Z,24.51
2017-11-27T00:12:18.251Z,24.46
2017-11-27T00:12:46.516Z,24.58
2017-11-27T00:13:14.562Z,24.58
2017-11-27T00:13:43.017Z,24.55
2017-11-27T00:14:11.141Z,24.44
2017-11-27T00:14:39.111Z,24.5
2017-11-27T00:15:07.467Z,24.5
2017-11-27T00:15:35.833Z,24.55
2017-11-27T00:16:03.870Z,24.47
2017-11-27T00:16:31.907Z,24.5
2017-11-27T00:16:59.957Z,24.56
2017-11-27T00:17:28.011Z,24.46
2017-11-27T00:17:56.231Z,24.58
2017-11-27T00:18:24.210Z,24.5
2017-11-27T00:18:52.244Z,24.55
2017-11-27T00:19:20.376Z,24.56
2017-11-27T00:19:48.614Z,24.58
2017-11-27T00:20:16.697Z,24.56
2017-11-27T00:20:44.836Z,24.5
2017-11-27T00:21:13.180Z,24.56
2017-11-27T00:21:41.302Z,24.56
2017-11-27T00:22:09.365Z,24.48
2017-11-27T00:22:37.419Z,24.53
2017-11-27T00:23:05.375Z,24.53
2017-11-27T00:23:33.503Z,24.5
2017-11-27T00:24:01.664Z,24.55
2017-11-27T00:24:29.833Z,24.58
2017-11-27T00:24:57.887Z,24.55
2017-11-27T00:25:26.029Z,24.51
2017-11-27T00:25:54.021Z,24.61
2017-11-27T00:26:22.354Z,24.58
2017-11-27T00:26:50.393Z,24.62
2017-11-27T00:27:18.454Z,24.66
2017-11-27T00:27:46.620Z,24.56
2017-11-27T00:28:14.777Z,24.58
2017-11-27T00:28:42.844Z,24.53
2017-11-27T00:29:11.002Z,24.61
2017-11-27T00:29:39.063Z,24.59
2017-11-27T00:30:07.424Z,24.51
2017-11-27T00:30:35.507Z,24.53
2017-11-27T00:31:03.546Z,24.55
2017-11-27T00:31:31.593Z,24.44
2017-11-27T00:31:59.520Z,24.51
2017-11-27T00:32:27.590Z,24.58
2017-11-27T00:32:55.842Z,24.55
2017-11-27T00:33:23.891Z,24.58
2017-11-27T00:33:52.153Z,24.58
2017-11-27T00:34:20.231Z,24.43
2017-11-27T00:34:48.400Z,24.46
2017-11-27T00:35:16.321Z,24.5
2017-11-27T00:35:44.384Z,24.5
2017-11-27T00:36:12.668Z,24.61
2017-11-27T00:36:40.800Z,24.44
2017-11-27T00:37:08.960Z,24.41
2017-11-27T00:37:37.040Z,24.36
2017-11-27T00:38:05.181Z,24.44
2017-11-27T00:38:33.161Z,24.41
2017-11-27T00:39:01.282Z,24.46
2017-11-27T00:39:29.420Z,24.38
2017-11-27T00:39:57.578Z,24.44
2017-11-27T00:40:25.662Z,24.43
2017-11-27T00:40:53.861Z,24.31
2017-11-27T00:41:22.019Z,24.38
2017-11-27T00:41:50.074Z,24.38
2017-11-27T00:42:18.116Z,24.43
2017-11-27T00:42:46.255Z,24.29
2017-11-27T00:43:14.383Z,24.31
2017-11-27T00:43:42.388Z,24.36
2017-11-27T00:44:10.772Z,24.41
2017-11-27T00:44:38.899Z,24.34
2017-11-27T00:45:06.926Z,24.37
2017-11-27T00:45:35.404Z,24.4
2017-11-27T00:46:03.462Z,24.36
2017-11-27T00:46:31.695Z,24.31
2017-11-27T00:46:59.629Z,24.32
2017-11-27T00:47:27.981Z,24.36
2017-11-27T00:47:56.685Z,24.32
2017-11-27T00:48:25.844Z,24.38
2017-11-27T00:48:53.701Z,24.44
2017-11-27T00:49:21.868Z,24.41
2017-11-27T00:49:49.850Z,24.43
2017-11-27T00:50:17.904Z,24.31
2017-11-27T00:50:45.980Z,24.34
2017-11-27T00:51:14.138Z,24.31
2017-11-27T00:51:42.191Z,24.29
2017-11-27T00:52:10.237Z,24.29
2017-11-27T00:52:38.610Z,24.34
2017-11-27T00:53:06.730Z,24.29
2017-11-27T00:53:34.897Z,24.34
2017-11-27T00:54:03.061Z,24.28
2017-11-27T00:54:31.302Z,24.28
2017-11-27T00:54:59.538Z,24.28
2017-11-27T00:55:27.675Z,24.28
2017-11-27T00:55:55.836Z,24.28
2017-11-27T00:56:23.889Z,24.34
2017-11-27T00:56:52.591Z,24.32
2017-11-27T00:57:20.783Z,24.32
2017-11-27T00:57:48.953Z,24.43
2017-11-27T00:58:17.111Z,24.32
2017-11-27T00:58:45.248Z,24.48
2017-11-27T00:59:13.216Z,24.43
2017-11-27T00:59:41.265Z,24.43
2017-11-27T01:00:10.232Z,24.43
2017-11-27T01:00:38.395Z,24.53
2017-11-27T01:01:06.446Z,24.44
2017-11-27T01:01:34.602Z,24.51
2017-11-27T01:02:02.766Z,24.58
2017-11-27T01:02:30.812Z,24.59
2017-11-27T01:02:58.846Z,24.46
2017-11-27T01:03:27.157Z,24.53
2017-11-27T01:03:55.789Z,24.5
2017-11-27T01:04:23.881Z,24.5
2017-11-27T01:04:52.077Z,24.58
2017-11-27T01:05:20.149Z,24.5
2017-11-27T01:05:48.391Z,24.51
2017-11-27T01:06:16.870Z,24.51
2017-11-27T01:06:45.045Z,24.55
2017-11-27T01:07:13.219Z,24.46
2017-11-27T01:07:41.259Z,24.55
2017-11-27T01:08:09.300Z,24.55
2017-11-27T01:08:37.464Z,24.59
2017-11-27T01:09:05.394Z,24.53
2017-11-27T01:09:33.453Z,24.56
2017-11-27T01:10:01.535Z,24.59
2017-11-27T01:10:29.663Z,24.55
2017-11-27T01:10:57.773Z,24.5
2017-11-27T01:11:25.911Z,24.44
2017-11-27T01:11:54.075Z,24.43
2017-11-27T01:12:22.168Z,24.53
2017-11-27T01:12:50.359Z,24.55
2017-11-27T01:13:18.496Z,24.47
2017-11-27T01:13:46.535Z,24.38
2017-11-27T01:14:14.697Z,24.46
2017-11-27T01:14:43.184Z,24.41
2017-11-27T01:15:11.134Z,24.46
2017-11-27T01:15:39.193Z,24.53
2017-11-27T01:16:07.421Z,24.51
2017-11-27T01:16:36.653Z,24.55
2017-11-27T01:17:04.815Z,24.55
2017-11-27T01:17:33.195Z,24.55
2017-11-27T01:18:01.337Z,24.55
2017-11-27T01:18:29.298Z,24.53
2017-11-27T01:18:57.566Z,24.63
2017-11-27T01:19:25.655Z,24.59
2017-11-27T01:19:53.867Z,24.51
2017-11-27T01:20:21.952Z,24.55
2017-11-27T01:20:50.115Z,24.59
2017-11-27T01:21:18.389Z,24.62
2017-11-27T01:21:46.579Z,24.55
2017-11-27T01:22:14.863Z,24.61
2017-11-27T01:22:42.816Z,24.61
2017-11-27T01:23:10.956Z,24.55
2017-11-27T01:23:38.913Z,24.55
2017-11-27T01:24:06.976Z,24.55
2017-11-27T01:24:35.122Z,24.51
2017-11-27T01:25:03.162Z,24.51
2017-11-27T01:25:31.187Z,24.47
2017-11-27T01:25:59.241Z,24.5
2017-11-27T01:26:27.383Z,24.58
2017-11-27T01:26:55.330Z,24.55
2017-11-27T01:27:23.364Z,24.53
2017-11-27T01:27:51.399Z,24.4
2017-11-27T01:28:19.555Z,24.41
2017-11-27T01:28:47.735Z,24.43
2017-11-27T01:29:15.880Z,24.43
2017-11-27T01:29:44.007Z,24.43
2017-11-27T01:30:12.358Z,24.43
2017-11-27T01:30:40.233Z,24.46
2017-11-27T01:31:08.294Z,24.48
2017-11-27T01:31:36.471Z,24.41
2017-11-27T01:32:04.640Z,24.37
2017-11-27T01:32:33.234Z,24.37
2017-11-27T01:33:01.267Z,24.32
2017-11-27T01:33:29.527Z,24.31
2017-11-27T01:33:58.116Z,24.37
2017-11-27T01:34:26.141Z,24.37
2017-11-27T01:34:54.308Z,24.4
2017-11-27T01:35:22.422Z,24.47
2017-11-27T01:35:50.461Z,24.44
2017-11-27T01:36:18.623Z,24.4
2017-11-27T01:36:46.658Z,24.41
2017-11-27T01:37:14.772Z,24.43
2017-11-27T01:37:42.847Z,24.38
2017-11-27T01:38:10.928Z,24.44
2017-11-27T01:38:39.069Z,24.36
2017-11-27T01:39:07.261Z,24.41
2017-11-27T01:39:35.425Z,24.38
2017-11-27T01:40:03.594Z,24.46
2017-11-27T01:40:31.566Z,24.43
2017-11-27T01:40:59.582Z,24.41
2017-11-27T01:41:27.709Z,24.43
2017-11-27T01:41:55.855Z,24.4
2017-11-27T01:42:24.024Z,24.44
2017-11-27T01:42:52.199Z,24.46
2017-11-27T01:43:20.342Z,24.46
2017-11-27T01:43:48.290Z,24.46
2017-11-27T01:44:16.420Z,24.41
2017-11-27T01:44:44.593Z,24.38
2017-11-27T01:45:12.726Z,24.43
2017-11-27T01:45:40.870Z,24.41
2017-11-27T01:46:08.996Z,24.48
2017-11-27T01:46:37.051Z,24.51
2017-11-27T01:47:05.103Z,24.55
2017-11-27T01:47:33.253Z,24.5
2017-11-27T01:48:01.822Z,24.5
2017-11-27T01:48:29.973Z,24.41
2017-11-27T01:48:58.393Z,24.44
2017-11-27T01:49:26.448Z,24.43
2017-11-27T01:49:54.501Z,24.43
2017-11-27T01:50:22.545Z,24.55
2017-11-27T01:50:50.719Z,24.59
2017-11-27T01:51:18.900Z,24.56
2017-11-27T01:51:46.996Z,24.56
2017-11-27T01:52:14.954Z,24.55
2017-11-27T01:52:42.998Z,24.59
2017-11-27T01:53:11.167Z,24.53
2017-11-27T01:53:39.330Z,24.62
2017-11-27T01:54:07.503Z,24.59
2017-11-27T01:54:35.633Z,24.63
2017-11-27T01:55:03.792Z,24.61
2017-11-27T01:55:31.874Z,24.62
2017-11-27T01:55:59.818Z,24.65
2017-11-27T01:56:28.161Z,24.68
2017-11-27T01:56:56.307Z,24.69
2017-11-27T01:57:24.363Z,24.71
2017-11-27T01:57:52.342Z,24.74
2017-11-27T01:58:20.475Z,24.78
2017-11-27T01:58:48.619Z,24.75
2017-11-27T01:59:16.645Z,24.77
2017-11-27T01:59:44.602Z,24.79
2017-11-27T02:00:12.633Z,24.82
2017-11-27T02:00:41.304Z,24.71
2017-11-27T02:01:09.449Z,24.81
2017-11-27T02:01:37.600Z,24.79
2017-11-27T02:02:05.509Z,24.81
2017-11-27T02:02:33.678Z,24.81
2017-11-27T02:03:01.806Z,24.81
2017-11-27T02:03:29.863Z,24.78
2017-11-27T02:03:58.112Z,24.82
2017-11-27T02:04:26.282Z,24.84
2017-11-27T02:04:54.331Z,24.82
2017-11-27T02:05:22.405Z,24.78
2017-11-27T02:05:50.429Z,24.86
2017-11-27T02:06:18.576Z,24.82
2017-11-27T02:06:46.627Z,24.82
2017-11-27T02:07:14.676Z,24.79
2017-11-27T02:07:42.625Z,24.84
2017-11-27T02:08:10.601Z,24.84
2017-11-27T02:08:38.654Z,24.84
2017-11-27T02:09:06.648Z,24.78
2017-11-27T02:09:34.788Z,24.82
2017-11-27T02:10:02.922Z,24.75
2017-11-27T02:10:30.986Z,24.85
2017-11-27T02:10:59.165Z,24.81
2017-11-27T02:11:27.194Z,24.78
2017-11-27T02:11:55.266Z,24.77
2017-11-27T02:12:23.628Z,24.75
2017-11-27T02:12:51.675Z,24.75
2017-11-27T02:13:19.636Z,24.74
2017-11-27T02:13:47.689Z,24.69
2017-11-27T02:14:15.977Z,24.74
2017-11-27T02:14:43.925Z,24.74
2017-11-27T02:15:12.120Z,24.74
2017-11-27T02:15:40.150Z,24.75
2017-11-27T02:16:08.335Z,24.75
2017-11-27T02:16:36.478Z,24.66
2017-11-27T02:17:04.652Z,24.68
2017-11-27T02:17:32.701Z,24.74
2017-11-27T02:18:00.760Z,24.75
2017-11-27T02:18:28.832Z,24.68
2017-11-27T02:18:56.874Z,24.62
2017-11-27T02:19:25.167Z,24.65
2017-11-27T02:19:53.336Z,24.69
2017-11-27T02:20:21.494Z,24.59
2017-11-27T02:20:49.471Z,24.55
2017-11-27T02:21:17.703Z,24.63
2017-11-27T02:21:45.821Z,24.55
2017-11-27T02:22:13.980Z,24.62
2017-11-27T02:22:41.962Z,24.56
2017-11-27T02:23:10.497Z,24.59
2017-11-27T02:23:38.641Z,24.55
2017-11-27T02:24:06.814Z,24.46
2017-11-27T02:24:34.957Z,24.58
2017-11-27T02:25:03.102Z,24.44
2017-11-27T02:25:31.257Z,24.41
2017-11-27T02:25:59.314Z,24.44
2017-11-27T02:26:27.446Z,24.38
2017-11-27T02:26:55.427Z,24.43
2017-11-27T02:27:23.373Z,24.44
2017-11-27T02:27:51.325Z,24.44
2017-11-27T02:28:19.470Z,24.4
2017-11-27T02:28:47.615Z,24.38
2017-11-27T02:29:15.759Z,24.41
2017-11-27T02:29:43.900Z,24.34
2017-11-27T02:30:11.958Z,24.36
2017-11-27T02:30:40.089Z,24.29
2017-11-27T02:31:08.219Z,24.21
2017-11-27T02:31:36.252Z,24.26
2017-11-27T02:32:04.431Z,24.25
2017-11-27T02:32:32.480Z,24.18
2017-11-27T02:33:00.622Z,24.16
2017-11-27T02:33:28.831Z,24.16
2017-11-27T02:33:56.780Z,24.18
2017-11-27T02:34:24.826Z,24.25
2017-11-27T02:34:52.748Z,24.24
2017-11-27T02:35:21.220Z,24.16
2017-11-27T02:35:49.284Z,24.16
2017-11-27T02:36:17.463Z,24.24
2017-11-27T02:36:45.609Z,24.26
2017-11-27T02:37:13.755Z,24.28
2017-11-27T02:37:41.802Z,24.22
2017-11-27T02:38:09.833Z,24.25
2017-11-27T02:38:37.786Z,24.31
2017-11-27T02:39:05.901Z,24.38
2017-11-27T02:39:33.760Z,24.36
2017-11-27T02:40:01.882Z,24.34
2017-11-27T02:40:29.942Z,24.4
2017-11-27T02:40:57.997Z,24.41
2017-11-27T02:41:26.149Z,24.41
2017-11-27T02:41:54.222Z,24.46
2017-11-27T02:42:22.323Z,24.4
2017-11-27T02:42:50.502Z,24.43
2017-11-27T02:43:18.648Z,24.41
2017-11-27T02:43:46.725Z,24.4
2017-11-27T02:44:14.760Z,24.44
2017-11-27T02:44:43.108Z,24.46
2017-11-27T02:45:11.168Z,24.48
2017-11-27T02:45:39.458Z,24.46
2017-11-27T02:46:07.463Z,24.38
2017-11-27T02:46:35.528Z,24.47
2017-11-27T02:47:03.692Z,24.38
2017-11-27T02:47:31.601Z,24.47
2017-11-27T02:47:59.753Z,24.46
2017-11-27T02:48:28.275Z,24.4
2017-11-27T02:48:56.353Z,24.43
2017-11-27T02:49:24.617Z,24.36
2017-11-27T02:49:52.756Z,24.44
2017-11-27T02:50:20.898Z,24.48
2017-11-27T02:50:48.880Z,24.46
2017-11-27T02:51:17.015Z,24.41
2017-11-27T02:51:44.983Z,24.51
2017-11-27T02:52:12.862Z,24.4
2017-11-27T02:52:40.930Z,24.46
2017-11-27T02:53:09.088Z,24.46
2017-11-27T02:53:37.627Z,24.38
2017-11-27T02:54:05.585Z,24.41
2017-11-27T02:54:33.556Z,24.43
2017-11-27T02:55:02.032Z,24.43
2017-11-27T02:55:30.089Z,24.43
2017-11-27T02:55:58.224Z,24.55
2017-11-27T02:56:26.288Z,24.44
2017-11-27T02:56:54.885Z,24.46
2017-11-27T02:57:22.927Z,24.58
2017-11-27T02:57:51.103Z,24.56
2017-11-27T02:58:19.236Z,24.5
2017-11-27T02:58:47.609Z,24.56
2017-11-27T02:59:15.789Z,24.43
2017-11-27T02:59:43.944Z,24.55
2017-11-27T03:00:12.094Z,24.46
2017-11-27T03:00:40.208Z,24.58
2017-11-27T03:01:08.261Z,24.5
2017-11-27T03:01:36.429Z,24.55
2017-11-27T03:02:04.571Z,24.43
2017-11-27T03:02:32.712Z,24.55
2017-11-27T03:03:00.802Z,24.55
2017-11-27T03:03:28.966Z,24.63
2017-11-27T03:03:56.919Z,24.53
2017-11-27T03:04:24.965Z,24.51
2017-11-27T03:04:53.128Z,24.58
2017-11-27T03:05:21.268Z,24.56
2017-11-27T03:05:49.393Z,24.58
2017-11-27T03:06:17.555Z,24.61
2017-11-27T03:06:45.598Z,24.61
2017-11-27T03:07:13.754Z,24.62
2017-11-27T03:07:41.919Z,24.58
2017-11-27T03:08:10.073Z,24.58
2017-11-27T03:08:38.198Z,24.58
2017-11-27T03:09:06.546Z,24.69
2017-11-27T03:09:34.456Z,24.65
2017-11-27T03:10:02.501Z,24.66
2017-11-27T03:10:30.642Z,24.69
2017-11-27T03:10:58.765Z,24.77
2017-11-27T03:11:26.822Z,24.75
2017-11-27T03:11:54.796Z,24.74
2017-11-27T03:12:22.945Z,24.77
2017-11-27T03:12:51.096Z,24.69
2017-11-27T03:13:19.122Z,24.75
2017-11-27T03:13:47.259Z,24.82
2017-11-27T03:14:15.421Z,24.77
2017-11-27T03:14:43.561Z,24.79
2017-11-27T03:15:11.401Z,24.79
2017-11-27T03:15:39.343Z,24.78
2017-11-27T03:16:07.515Z,24.82
2017-11-27T03:16:35.543Z,24.78
2017-11-27T03:17:03.699Z,24.78
2017-11-27T03:17:32.034Z,24.78
2017-11-27T03:17:59.970Z,24.74
2017-11-27T03:18:27.997Z,24.82
2017-11-27T03:18:56.022Z,24.81
2017-11-27T03:19:24.073Z,24.84
2017-11-27T03:19:52.584Z,24.71
2017-11-27T03:20:20.639Z,24.78
2017-11-27T03:20:48.666Z,24.82
2017-11-27T03:21:16.626Z,24.75
2017-11-27T03:21:44.766Z,24.77
2017-11-27T03:22:12.832Z,24.77
2017-11-27T03:22:40.963Z,24.74
2017-11-27T03:23:09.023Z,24.69
2017-11-27T03:23:36.978Z,24.69
2017-11-27T03:24:05.029Z,24.74
2017-11-27T03:24:33.186Z,24.61
2017-11-27T03:25:01.417Z,24.61
2017-11-27T03:25:29.575Z,24.59
2017-11-27T03:25:57.738Z,24.62
2017-11-27T03:26:25.905Z,24.62
2017-11-27T03:26:54.031Z,24.58
2017-11-27T03:27:22.210Z,24.65
2017-11-27T03:27:50.261Z,24.63
2017-11-27T03:28:18.464Z,24.56
2017-11-27T03:28:46.697Z,24.53
2017-11-27T03:29:14.792Z,24.58
2017-11-27T03:29:42.968Z,24.55
2017-11-27T03:30:11.299Z,24.48
2017-11-27T03:30:39.361Z,24.5
2017-11-27T03:31:07.525Z,24.51
2017-11-27T03:31:35.517Z,24.48
2017-11-27T03:32:03.675Z,24.55
2017-11-27T03:32:31.665Z,24.43
2017-11-27T03:32:59.904Z,24.46
2017-11-27T03:33:27.900Z,24.55
2017-11-27T03:33:55.910Z,24.48
2017-11-27T03:34:24.091Z,24.43
2017-11-27T03:34:52.262Z,24.43
2017-11-27T03:35:20.388Z,24.4
2017-11-27T03:35:48.334Z,24.44
2017-11-27T03:36:16.548Z,24.44
2017-11-27T03:36:44.739Z,24.44
2017-11-27T03:37:12.944Z,24.47
2017-11-27T03:37:41.111Z,24.47
2017-11-27T03:38:09.285Z,24.4
2017-11-27T03:38:37.479Z,24.41
2017-11-27T03:39:05.677Z,24.34
2017-11-27T03:39:33.836Z,24.44
2017-11-27T03:40:01.888Z,24.44
2017-11-27T03:40:29.966Z,24.47
2017-11-27T03:40:58.153Z,24.36
2017-11-27T03:41:26.499Z,24.41
2017-11-27T03:41:54.548Z,24.34
2017-11-27T03:42:22.717Z,24.41
2017-11-27T03:42:50.792Z,24.43
2017-11-27T03:43:18.872Z,24.41
2017-11-27T03:43:46.993Z,24.37
2017-11-27T03:44:15.085Z,24.37
2017-11-27T03:44:43.166Z,24.32
2017-11-27T03:45:11.284Z,24.32
2017-11-27T03:45:39.539Z,24.36
2017-11-27T03:46:07.705Z,24.36
2017-11-27T03:46:35.922Z,24.34
2017-11-27T03:47:03.954Z,24.32
2017-11-27T03:47:32.129Z,24.28
2017-11-27T03:48:00.042Z,24.26
2017-11-27T03:48:28.177Z,24.29
2017-11-27T03:48:56.231Z,24.32
2017-11-27T03:49:24.398Z,24.26
2017-11-27T03:49:52.553Z,24.22
2017-11-27T03:50:21.112Z,24.24
2017-11-27T03:50:49.215Z,24.24
2017-11-27T03:51:17.241Z,24.21
2017-11-27T03:51:45.471Z,24.19
2017-11-27T03:52:13.530Z,24.18
2017-11-27T03:52:41.709Z,24.09
2017-11-27T03:53:09.763Z,24.14
2017-11-27T03:53:37.703Z,24.21
2017-11-27T03:54:05.899Z,24.11
2017-11-27T03:54:33.915Z,24.1
2017-11-27T03:55:01.889Z,24.06
2017-11-27T03:55:30.113Z,24.06
2017-11-27T03:55:58.379Z,24.06
2017-11-27T03:56:26.325Z,24.06
2017-11-27T03:56:54.377Z,24.09
2017-11-27T03:57:22.556Z,24.01
2017-11-27T03:57:50.518Z,24.04
2017-11-27T03:58:18.695Z,24.06
2017-11-27T03:58:46.865Z,24
2017-11-27T03:59:15.004Z,23.95
2017-11-27T03:59:43.096Z,23.96
2017-11-27T04:00:11.292Z,23.94
2017-11-27T04:00:39.443Z,23.96
2017-11-27T04:01:07.632Z,23.96
2017-11-27T04:01:35.687Z,23.95
2017-11-27T04:02:03.824Z,23.96
2017-11-27T04:02:31.915Z,23.94
2017-11-27T04:02:59.974Z,23.95
2017-11-27T04:03:28.280Z,23.91
2017-11-27T04:03:56.496Z,23.95
2017-11-27T04:04:24.721Z,23.92
2017-11-27T04:04:52.881Z,23.92
2017-11-27T04:05:21.130Z,23.92
2017-11-27T04:05:49.266Z,23.91
2017-11-27T04:06:17.423Z,23.89
2017-11-27T04:06:45.393Z,24
2017-11-27T04:07:13.577Z,24
2017-11-27T04:07:41.631Z,23.88
2017-11-27T04:08:10.630Z,23.99
2017-11-27T04:08:38.843Z,23.92
2017-11-27T04:09:06.682Z,23.94
2017-11-27T04:09:34.813Z,23.96
2017-11-27T04:10:03.111Z,23.91
2017-11-27T04:10:31.254Z,23.95
2017-11-27T04:10:59.438Z,23.82
2017-11-27T04:11:27.414Z,23.84
2017-11-27T04:11:55.466Z,23.82
2017-11-27T04:12:23.617Z,23.81
2017-11-27T04:12:51.740Z,23.82
2017-11-27T04:13:19.919Z,23.85
2017-11-27T04:13:47.982Z,23.85
2017-11-27T04:14:16.171Z,23.79
2017-11-27T04:14:44.341Z,23.79
2017-11-27T04:15:12.514Z,23.81
2017-11-27T04:15:40.705Z,23.91
2017-11-27T04:16:08.879Z,23.76
2017-11-27T04:16:37.030Z,23.82
2017-11-27T04:17:05.187Z,23.84
2017-11-27T04:17:33.267Z,23.82
2017-11-27T04:18:01.409Z,23.82
2017-11-27T04:18:29.300Z,23.79
2017-11-27T04:18:57.328Z,23.71
2017-11-27T04:19:25.593Z,23.79
2017-11-27T04:19:53.622Z,23.77
2017-11-27T04:20:21.774Z,23.71
2017-11-27T04:20:50.118Z,23.67
2017-11-27T04:21:18.166Z,23.74
2017-11-27T04:21:46.351Z,23.59
2017-11-27T04:22:14.544Z,23.64
2017-11-27T04:22:42.692Z,23.66
2017-11-27T04:23:10.875Z,23.63
2017-11-27T04:23:38.933Z,23.56
2017-11-27T04:24:06.867Z,23.54
2017-11-27T04:24:34.916Z,23.54
2017-11-27T04:25:03.154Z,23.48
2017-11-27T04:25:31.215Z,23.51
2017-11-27T04:25:59.328Z,23.56
2017-11-27T04:26:27.577Z,23.49
2017-11-27T04:26:55.739Z,23.52
2017-11-27T04:27:23.804Z,23.49
2017-11-27T04:27:51.936Z,23.51
2017-11-27T04:28:20.030Z,23.49
2017-11-27T04:28:48.127Z,23.54
2017-11-27T04:29:16.340Z,23.51
2017-11-27T04:29:44.380Z,23.49
2017-11-27T04:30:12.429Z,23.51
2017-11-27T04:30:40.509Z,23.58
2017-11-27T04:31:08.690Z,23.54
2017-11-27T04:31:36.833Z,23.49
2017-11-27T04:32:05.064Z,23.48
2017-11-27T04:32:34.009Z,23.47
2017-11-27T04:33:02.048Z,23.48
2017-11-27T04:33:30.207Z,23.56
2017-11-27T04:33:58.351Z,23.55
2017-11-27T04:34:26.527Z,23.62
2017-11-27T04:34:54.403Z,23.49
2017-11-27T04:35:22.565Z,23.52
2017-11-27T04:35:50.814Z,23.58
2017-11-27T04:36:19.011Z,23.59
2017-11-27T04:36:47.165Z,23.51
2017-11-27T04:37:14.920Z,23.56
2017-11-27T04:37:42.873Z,23.52
2017-11-27T04:38:11.076Z,23.56
2017-11-27T04:38:39.203Z,23.55
2017-11-27T04:39:07.370Z,23.59
2017-11-27T04:39:35.413Z,23.56
2017-11-27T04:40:03.371Z,23.64
2017-11-27T04:40:31.505Z,23.58
2017-11-27T04:40:59.644Z,23.58
2017-11-27T04:41:27.799Z,23.59
2017-11-27T04:41:55.857Z,23.64
2017-11-27T04:42:23.707Z,23.59
2017-11-27T04:42:51.980Z,23.54
2017-11-27T04:43:20.086Z,23.56
2017-11-27T04:43:48.227Z,23.56
2017-11-27T04:44:16.338Z,23.59
2017-11-27T04:44:44.391Z,23.59
2017-11-27T04:45:12.563Z,23.63
2017-11-27T04:45:40.746Z,23.66
2017-11-27T04:46:08.883Z,23.69
2017-11-27T04:46:36.953Z,23.59
2017-11-27T04:47:05.181Z,23.59
2017-11-27T04:47:33.138Z,23.56
2017-11-27T04:48:01.265Z,23.64
2017-11-27T04:48:29.295Z,23.63
2017-11-27T04:48:57.315Z,23.67
2017-11-27T04:49:25.357Z,23.67
2017-11-27T04:49:53.317Z,23.69
2017-11-27T04:50:21.372Z,23.63
2017-11-27T04:50:49.720Z,23.64
2017-11-27T04:51:17.814Z,23.67
2017-11-27T04:51:45.897Z,23.59
2017-11-27T04:52:14.027Z,23.62
2017-11-27T04:52:42.070Z,23.62
2017-11-27T04:53:10.334Z,23.63
2017-11-27T04:53:38.491Z,23.55
2017-11-27T04:54:06.442Z,23.51
2017-11-27T04:54:34.809Z,23.58
2017-11-27T04:55:02.982Z,23.55
2017-11-27T04:55:31.105Z,23.49
2017-11-27T04:55:59.176Z,23.55
2017-11-27T04:56:27.325Z,23.58
2017-11-27T04:56:55.276Z,23.58
2017-11-27T04:57:23.418Z,23.58
2017-11-27T04:57:51.585Z,23.54
2017-11-27T04:58:19.743Z,23.55
2017-11-27T04:58:47.930Z,23.56
2017-11-27T04:59:16.025Z,23.55
2017-11-27T04:59:44.056Z,23.58
2017-11-27T05:00:12.246Z,23.54
2017-11-27T05:00:40.416Z,23.62
2017-11-27T05:01:08.576Z,23.62
2017-11-27T05:01:36.748Z,23.64
2017-11-27T05:02:04.968Z,23.62
2017-11-27T05:02:33.128Z,23.59
2017-11-27T05:03:01.115Z,23.66
2017-11-27T05:03:29.134Z,23.63
2017-11-27T05:03:57.339Z,23.69
2017-11-27T05:04:25.446Z,23.59
2017-11-27T05:04:53.598Z,23.55
2017-11-27T05:05:21.602Z,23.56
2017-11-27T05:05:49.680Z,23.52
2017-11-27T05:06:17.759Z,23.56
2017-11-27T05:06:45.896Z,23.52
2017-11-27T05:07:14.056Z,23.47
2017-11-27T05:07:42.107Z,23.4
2017-11-27T05:08:10.141Z,23.39
2017-11-27T05:08:38.163Z,23.49
2017-11-27T05:09:06.237Z,23.47
2017-11-27T05:09:34.260Z,23.39
2017-11-27T05:10:02.309Z,23.37
2017-11-27T05:10:30.268Z,23.33
2017-11-27T05:10:58.452Z,23.37
2017-11-27T05:11:26.870Z,23.36
2017-11-27T05:11:54.902Z,23.32
2017-11-27T05:12:23.058Z,23.32
2017-11-27T05:12:51.208Z,23.28
2017-11-27T05:13:19.434Z,23.25
2017-11-27T05:13:47.498Z,23.23
2017-11-27T05:14:15.682Z,23.2
2017-11-27T05:14:43.651Z,23.17
2017-11-27T05:15:11.852Z,23.18
2017-11-27T05:15:39.993Z,23.23
2017-11-27T05:16:08.164Z,23.2
2017-11-27T05:16:36.375Z,23.17
2017-11-27T05:17:04.486Z,23.21
2017-11-27T05:17:32.638Z,23.18
2017-11-27T05:18:00.623Z,23.13
2017-11-27T05:18:28.758Z,23.07
2017-11-27T05:18:56.904Z,23.16
2017-11-27T05:19:25.059Z,23.13
2017-11-27T05:19:53.180Z,23.14
2017-11-27T05:20:21.263Z,23.13
2017-11-27T05:20:49.330Z,23.11
2017-11-27T05:21:17.765Z,23.1
2017-11-27T05:21:45.925Z,23.13
2017-11-27T05:22:13.959Z,23.06
2017-11-27T05:22:42.104Z,23.04
2017-11-27T05:23:10.213Z,23.11
2017-11-27T05:23:38.302Z,23.1
2017-11-27T05:24:06.460Z,23.08
2017-11-27T05:24:34.656Z,23.06
2017-11-27T05:25:02.777Z,23.08
2017-11-27T05:25:30.711Z,23.1
2017-11-27T05:25:58.850Z,23.13
2017-11-27T05:26:26.891Z,23.07
2017-11-27T05:26:54.933Z,23.07
2017-11-27T05:27:23.047Z,23.07
2017-11-27T05:27:51.101Z,23.1
2017-11-27T05:28:19.251Z,23.06
2017-11-27T05:28:47.323Z,23.04
2017-11-27T05:29:15.414Z,23.01
2017-11-27T05:29:43.459Z,23.06
2017-11-27T05:30:11.654Z,22.99
2017-11-27T05:30:39.813Z,22.88
2017-11-27T05:31:07.850Z,23.01
2017-11-27T05:31:36.025Z,23.02
2017-11-27T05:32:04.168Z,22.99
2017-11-27T05:32:32.229Z,22.89
2017-11-27T05:33:00.161Z,22.98
2017-11-27T05:33:28.283Z,22.88
2017-11-27T05:33:56.160Z,22.92
2017-11-27T05:34:24.116Z,22.84
2017-11-27T05:34:52.162Z,22.84
2017-11-27T05:35:20.208Z,22.81
2017-11-27T05:35:48.344Z,22.76
2017-11-27T05:36:16.389Z,22.88
2017-11-27T05:36:44.588Z,22.78
2017-11-27T05:37:12.429Z,22.73
2017-11-27T05:37:40.664Z,22.77
2017-11-27T05:38:08.628Z,22.63
2017-11-27T05:38:36.673Z,22.68
2017-11-27T05:39:04.852Z,22.71
2017-11-27T05:39:33.019Z,22.67
2017-11-27T05:40:01.171Z,22.7
2017-11-27T05:40:29.231Z,22.65
2017-11-27T05:40:57.356Z,22.61
2017-11-27T05:41:25.383Z,22.67
2017-11-27T05:41:53.523Z,22.56
2017-11-27T05:42:21.580Z,22.61
2017-11-27T05:42:49.538Z,22.55
2017-11-27T05:43:17.789Z,22.67
2017-11-27T05:43:45.951Z,22.61
2017-11-27T05:44:14.867Z,22.62
2017-11-27T05:44:42.937Z,22.67
2017-11-27T05:45:11.100Z,22.68
2017-11-27T05:45:39.140Z,22.63
2017-11-27T05:46:07.096Z,22.65
2017-11-27T05:46:35.254Z,22.67
2017-11-27T05:47:03.308Z,22.7
2017-11-27T05:47:31.458Z,22.63
2017-11-27T05:47:59.545Z,22.67
2017-11-27T05:48:27.483Z,22.7
2017-11-27T05:48:55.683Z,22.63
2017-11-27T05:49:23.884Z,22.65
2017-11-27T05:49:51.961Z,22.63
2017-11-27T05:50:20.089Z,22.7
2017-11-27T05:50:48.124Z,22.62
2017-11-27T05:51:16.357Z,22.65
2017-11-27T05:51:44.494Z,22.62
2017-11-27T05:52:12.558Z,22.63
2017-11-27T05:52:40.635Z,22.62
2017-11-27T05:53:08.746Z,22.53
2017-11-27T05:53:36.887Z,22.59
2017-11-27T05:54:05.034Z,22.52
2017-11-27T05:54:33.075Z,22.55
2017-11-27T05:55:01.340Z,22.53
2017-11-27T05:55:29.388Z,22.53
2017-11-27T05:55:57.575Z,22.56
2017-11-27T05:56:25.819Z,22.61
2017-11-27T05:56:53.977Z,22.55
2017-11-27T05:57:22.182Z,22.62
2017-11-27T05:57:50.253Z,22.59
2017-11-27T05:58:18.294Z,22.58
2017-11-27T05:58:46.445Z,22.52
2017-11-27T05:59:14.612Z,22.56
2017-11-27T05:59:42.662Z,22.49
2017-11-27T06:00:10.744Z,22.63
2017-11-27T06:00:38.879Z,22.67
2017-11-27T06:01:07.046Z,22.62
2017-11-27T06:01:35.107Z,22.67
2017-11-27T06:02:03.352Z,22.52
2017-11-27T06:02:31.436Z,22.61
2017-11-27T06:02:59.604Z,22.55
2017-11-27T06:03:27.731Z,22.62
2017-11-27T06:03:55.931Z,22.62